»·PEaware :: N172TT KSNA-KVCV

N172TT :: KSNA-KVCV

FLIGHT INFORMATION

Flight Status: Arrived
Operator: Privately registered:
United States
More flights under this callsign
Pilot: Thomas T. (19955)
Aircraft: CESSNA 172 SKYHAWK
(C172)
More flights by this aircraft type
Origin: KSNA John Wayne-Orange Co
United States
Destination: KVCV Socal Logistics
United States
More flights between these airports :: More routes between these airports
Route: SLI V8 PDZ V442 APLES
File this flight plan on PilotEdge
Remarks: TRAING FLIGHT
Altitude:
(Current/Filed)
7,000ft
Speed:
(Current/Filed)
118kts
Departed: 05-Oct-18 09:20 AM
Arrived: 05-Oct-18 10:28 AM
Distance/Time
Traveled:
60nm/1:08
Distance/Time
To Go:
Arrived

Flight Plot

Page will automatically refresh every two minutes.


Map Options




Map Legend


Flown Route
Filed Route
Departure Airport
Arrival Airport
Navaid (VOR, NDB)
Fix

Horizontal Profiles

Position Reports

Time Latitude Longitude Heading Altitude Ground
Speed
05-Oct-18 08:40 33.676080 -117.870909 219 60ft 0kts
05-Oct-18 08:41 33.676080 -117.870909 219 60ft 0kts
05-Oct-18 08:42 33.676080 -117.870909 219 60ft 0kts
05-Oct-18 08:43 33.676080 -117.870909 219 60ft 0kts
05-Oct-18 08:44 33.676080 -117.870909 219 60ft 0kts
05-Oct-18 08:45 33.676080 -117.870909 219 60ft 0kts
05-Oct-18 08:46 33.676080 -117.870909 219 60ft 0kts
05-Oct-18 08:47 33.676080 -117.870909 219 60ft 0kts
05-Oct-18 08:48 33.676080 -117.870909 219 60ft 0kts
05-Oct-18 08:49 33.676080 -117.870909 219 60ft 0kts
05-Oct-18 08:50 33.676080 -117.870909 219 60ft 0kts
05-Oct-18 08:51 33.676080 -117.870909 219 60ft 0kts
05-Oct-18 08:52 33.676080 -117.870909 219 60ft 0kts
05-Oct-18 08:53 33.676080 -117.870909 219 60ft 0kts
05-Oct-18 08:54 33.676080 -117.870909 219 60ft 0kts
05-Oct-18 08:55 33.676080 -117.870909 219 60ft 0kts
05-Oct-18 08:56 33.676080 -117.870909 219 60ft 0kts
05-Oct-18 08:57 33.676080 -117.870909 219 60ft 0kts
05-Oct-18 08:58 33.676080 -117.870909 219 60ft 0kts
05-Oct-18 08:59 33.676080 -117.870909 219 60ft 0kts
05-Oct-18 09:00 33.676080 -117.870909 219 60ft 0kts
05-Oct-18 09:01 33.676080 -117.870909 219 60ft 0kts
05-Oct-18 09:02 33.676080 -117.870909 219 60ft 0kts
05-Oct-18 09:03 33.676080 -117.870909 219 60ft 0kts
05-Oct-18 09:04 33.676080 -117.870909 219 60ft 0kts
05-Oct-18 09:05 33.676080 -117.870909 219 60ft 0kts
05-Oct-18 09:06 33.676080 -117.870909 219 60ft 0kts
05-Oct-18 09:07 33.676080 -117.870909 219 60ft 0kts
05-Oct-18 09:08 33.676080 -117.870909 219 60ft 0kts
05-Oct-18 09:09 33.676080 -117.870909 219 60ft 0kts
05-Oct-18 09:10 33.676080 -117.870909 219 60ft 0kts
05-Oct-18 09:11 33.676080 -117.870909 219 60ft 0kts
05-Oct-18 09:12 33.676080 -117.870909 219 60ft 0kts
05-Oct-18 09:13 33.676080 -117.870909 219 60ft 0kts
05-Oct-18 09:14 33.676080 -117.870909 219 60ft 0kts
05-Oct-18 09:15 33.676080 -117.870909 219 60ft 0kts
05-Oct-18 09:16 33.676074 -117.870914 212 60ft 1kts
05-Oct-18 09:17 33.677392 -117.869287 28 60ft 16kts
05-Oct-18 09:18 33.681237 -117.866720 80 60ft 0kts
05-Oct-18 09:19 33.681237 -117.866720 81 60ft 0kts
05-Oct-18 09:20 33.681237 -117.866720 81 60ft 0kts
05-Oct-18 09:21 33.680532 -117.865749 203 60ft 0kts
05-Oct-18 09:22 33.667585 -117.875898 209 452ft 85kts
05-Oct-18 09:23 33.648480 -117.901000 232 946ft 112kts
05-Oct-18 09:24 33.629894 -117.930579 232 1615ft 104kts
05-Oct-18 09:25 33.613093 -117.956855 232 2509ft 96kts
05-Oct-18 09:26 33.598050 -117.981886 263 3398ft 90kts
05-Oct-18 09:27 33.616475 -118.000888 331 3998ft 107kts
05-Oct-18 09:28 33.645599 -118.015580 337 4032ft 113kts
05-Oct-18 09:29 33.674806 -118.029437 337 4030ft 113kts
05-Oct-18 09:30 33.703946 -118.043247 338 4029ft 113kts
05-Oct-18 09:31 33.731514 -118.053987 0 4023ft 114kts
05-Oct-18 09:32 33.762407 -118.053073 359 4021ft 113kts
05-Oct-18 09:33 33.785579 -118.037035 69 4006ft 111kts
05-Oct-18 09:34 33.794989 -118.001710 69 4003ft 111kts
05-Oct-18 09:35 33.804359 -117.965802 70 4001ft 114kts
05-Oct-18 09:36 33.813861 -117.929203 69 4144ft 115kts
05-Oct-18 09:37 33.823489 -117.892244 69 4643ft 116kts
05-Oct-18 09:38 33.833125 -117.854932 70 5008ft 123kts
05-Oct-18 09:39 33.842747 -117.817340 68 5511ft 105kts
05-Oct-18 09:40 33.851036 -117.785455 66 6302ft 96kts
05-Oct-18 09:41 33.858999 -117.754666 65 7001ft 96kts
05-Oct-18 09:42 33.866712 -117.724621 64 7690ft 93kts
05-Oct-18 09:43 33.874512 -117.694196 64 8289ft 96kts
05-Oct-18 09:44 33.882286 -117.663713 63 8880ft 94kts
05-Oct-18 09:45 33.890909 -117.629912 65 9033ft 116kts
05-Oct-18 09:46 33.900315 -117.592432 65 9026ft 117kts
05-Oct-18 09:47 33.909891 -117.554632 65 9019ft 118kts
05-Oct-18 09:48 33.926392 -117.524483 24 9012ft 108kts
05-Oct-18 09:49 33.952852 -117.507211 22 9004ft 106kts
05-Oct-18 09:50 33.978904 -117.491192 21 8997ft 112kts
05-Oct-18 09:51 34.007112 -117.474109 21 8989ft 114kts
05-Oct-18 09:52 34.035537 -117.456966 21 8978ft 114kts
05-Oct-18 09:53 34.063974 -117.439835 21 8968ft 114kts
05-Oct-18 09:54 34.092324 -117.422753 21 8956ft 114kts
05-Oct-18 09:55 34.120016 -117.406629 19 9016ft 113kts
05-Oct-18 09:56 34.148637 -117.390133 21 9028ft 114kts
05-Oct-18 09:57 34.177114 -117.373041 21 9039ft 114kts
05-Oct-18 09:58 34.205191 -117.356098 21 9050ft 114kts
05-Oct-18 09:59 34.232785 -117.339428 22 9056ft 114kts
05-Oct-18 10:00 34.261231 -117.322229 21 9059ft 114kts
05-Oct-18 10:01 34.289865 -117.304904 21 9061ft 115kts
05-Oct-18 10:02 34.318599 -117.287506 20 9062ft 116kts
05-Oct-18 10:03 34.347480 -117.270005 20 9062ft 116kts
05-Oct-18 10:04 34.376589 -117.252353 19 9061ft 117kts
05-Oct-18 10:05 34.406959 -117.241326 351 9063ft 112kts
05-Oct-18 10:06 34.437770 -117.246145 347 9060ft 112kts
05-Oct-18 10:07 34.468654 -117.251610 347 9057ft 112kts
05-Oct-18 10:08 34.497150 -117.256369 347 9048ft 99kts
05-Oct-18 10:09 34.524264 -117.260737 347 8980ft 102kts
05-Oct-18 10:10 34.553739 -117.265561 348 8475ft 108kts
05-Oct-18 10:11 34.583603 -117.270323 348 8071ft 99kts
05-Oct-18 10:12 34.608954 -117.273919 347 8061ft 91kts
05-Oct-18 10:13 34.637327 -117.278322 347 8062ft 109kts
05-Oct-18 10:14 34.667602 -117.283644 346 8056ft 110kts
05-Oct-18 10:15 34.698063 -117.289206 347 8048ft 110kts
05-Oct-18 10:16 34.726961 -117.294269 347 8032ft 92kts
05-Oct-18 10:17 34.751985 -117.298049 346 8028ft 104kts
05-Oct-18 10:18 34.782278 -117.303117 347 7647ft 109kts
05-Oct-18 10:19 34.810842 -117.307437 347 6938ft 100kts
05-Oct-18 10:20 34.835294 -117.317491 288 6225ft 96kts
05-Oct-18 10:21 34.836709 -117.350363 255 5512ft 100kts
05-Oct-18 10:22 34.814037 -117.370270 215 5075ft 87kts
05-Oct-18 10:23 34.793187 -117.382827 207 5068ft 93kts
05-Oct-18 10:24 34.764774 -117.387208 190 5065ft 104kts
05-Oct-18 10:25 34.736206 -117.387735 187 5028ft 100kts
05-Oct-18 10:26 34.707943 -117.387690 184 4552ft 104kts
05-Oct-18 10:27 34.679391 -117.387516 187 3983ft 97kts
05-Oct-18 10:28 34.655026 -117.386675 185 3495ft 72kts
05-Oct-18 10:29 34.635728 -117.386744 187 3187ft 75kts
05-Oct-18 10:30 34.617135 -117.386762 177 2818ft 27kts
05-Oct-18 10:31 34.616025 -117.385814 96 2820ft 11kts
05-Oct-18 10:32 34.612259 -117.384192 186 2824ft 23kts
05-Oct-18 10:33 34.607089 -117.384133 184 2834ft 13kts
05-Oct-18 10:34 34.601101 -117.384080 185 2844ft 9kts
05-Oct-18 10:35 34.596115 -117.384060 167 2853ft 4kts

Navigation Log

Ident Type
1. KSNA Airport
2. SLI Navaid
3. AHEIM Fix
4. OLLIE Fix
5. POXKU Fix
6. EBITE Fix
7. PDZ Navaid
8. APLES Fix
9. KVCV Airport